Current Conditions
Partly Cloudy
Conditions




Pressure
29.9 (inHG) - 1012.52 (mb)
Visibility

9.9 (mimiles) - 16.0 (km)
   Temperature
66  °F
19°C
57  °F
Dewpoint
73  %
 Humidity
   Wind Speed
0  mph
0  kts
0  km/h
0  m/s
   Wind Direction
Calm
Due North
   Airport Data
KSNA
Location John Wayne Airport-Orange County Airport 15 mi (24.14 km)
Metar :KSNA 121453Z 00000KT 10SM FEW100 19/14 A2990 RMK AO2 SLP124 FU FEW100 T01890144 53008
Wed 12th August 06:53 am
   Raw Metar Info
Raw METAR is the most common format in the world for the transmission of observational weather data. It is highly standardized through the International Civil Aviation Organization (ICAO), which allows it to be understood throughout most of the world.
   API Info
Data Provided by
https://www.checkwx.com/weather/KSNA
   © Info
CSS/SVG/PHP scripts were developed by weather34.com for use in the weather34 template © 2015-2020

Guide Info provided by Metar-Wikipedia